Jihlavská 24 MTB 2019


18.05.2019
Data v databázi jsou aktualizována v intervalu 5 minut.
SportSoft - timing & resulting
Aktualizuj

Aktuální nejrychlejší kola

Zobraz pořadí

Všechny kategorie

Poř.St.č.JménoRočníkStátTýmKategoriePořadí kolaPrůměrná rychlostČas kolaPrůjezd cílem 
1.4072TOMAN Vojtěch1996CZE HR Racing Team České Budějovice 4TMOP - 24 hod. 4 tým muži OPEN1 28.74 km/h00:17:3211:21:45 detail
2.1170VÁGNER Marek1989CZE Krabcycles Syndicate 2TMOP - 24 hod. 2 tým muži OPEN1 26.99 km/h00:18:4011:22:59 detail
3.1171VLČEK Sebastian1994CZE Krabcycles Syndicate 2TMOP - 24 hod. 2 tým muži OPEN1 26.24 km/h00:19:1212:22:20 detail
4.4193FIEDLER David1974CZE Uniqa MTB Jihlava 4TMV - 24 hod. 4 tým muži 40 let +1 25.82 km/h00:19:3111:23:45 detail
5.2091PARTL Ondřej1995CZE UNIQA MTB Team + Big Shock Team 2TM12OP - 12 hod. 2 tým muži OPEN1 25.82 km/h00:19:3111:23:45 detail
6.2051MIKOLÁŠEK Jan1993CZE Velko-Chlebo-Papírníci 2TM12OP - 12 hod. 2 tým muži OPEN1 25.58 km/h00:19:4212:04:36 detail
7.2050VELÍŠEK Petr1999CZE Velko-Chlebo-Papírníci 2TM12OP - 12 hod. 2 tým muži OPEN2 25.47 km/h00:19:4711:44:32 detail
8.4213ŠTEFÁNIK Jozef1980SVK Spektrumsz/CK Epic Dohňany 4TMOP - 24 hod. 4 tým muži OPEN3 25.42 km/h00:19:4914:16:37 detail
9.2081TOMANDL Pavel1977CZE Penguin Team 2TM12OP - 12 hod. 2 tým muži OPEN1 25.33 km/h00:19:5311:24:17 detail
10.4172ŠRAIL Tomáš1992CZE Volšový nohy 4TMIOP - 24. hod. 4 tým mix OPEN5 25.29 km/h00:19:5516:40:02 detail
11.8014ZACH Luboš1984CZE MMJ - nevzdáme to. 8TOP - 24 hod. 8 tým bez rozdílu, bez omezení věku2 25.27 km/h00:19:5614:15:03 detail
12.4081CHLUP Roman1970CZE TUKAN KV 4TMV - 24 hod. 4 tým muži 40 let +1 25.13 km/h00:20:0311:24:23 detail
13.1070MITÁŠ Martin1974CZE KAMECHY bikes 2TMOP - 24 hod. 2 tým muži OPEN1 24.90 km/h00:20:1411:24:32 detail
14.25PALÁSEK Martin1977CZE PALÁSEK Martin SM40-49 - 24 hod. jednotlivci muži 40 - 49 let1 24.90 km/h00:20:1411:24:54 detail
15.4021KUPKA Jan1993CZE 4joy 4TMIOP - 24. hod. 4 tým mix OPEN2 24.68 km/h00:20:2513:16:07 detail
16.29KRATINA Tomáš1990CZE KRATINA Tomáš SM23-39 - 24 hod. jednotlivci muži 23 - 39 let1 24.58 km/h00:20:3011:25:10 detail
17.4071HOUDEK Jiří1982CZE HR Racing Team České Budějovice 4TMOP - 24 hod. 4 tým muži OPEN2 24.50 km/h00:20:3413:49:26 detail
18.2100CHALUPA Dani1989CZE D&R 2TM12OP - 12 hod. 2 tým muži OPEN1 24.49 km/h00:20:3411:24:59 detail
19.4020VOBORNÍK Lukáš1985CZE 4joy 4TMIOP - 24. hod. 4 tým mix OPEN1 24.45 km/h00:20:3711:25:09 detail
20.2041BROŽ Marek1997CZE BarBro TEAM 2TMI12OP - 12 hod. 2 tým mix OPEN1 24.42 km/h00:20:3811:24:53 detail
21.4211RŽONCA Michal1997SVK Spektrumsz/CK Epic Dohňany 4TMOP - 24 hod. 4 tým muži OPEN2 24.42 km/h00:20:3813:11:49 detail
22.2090VESELÝ Tomáš1989CZE UNIQA MTB Team + Big Shock Team 2TM12OP - 12 hod. 2 tým muži OPEN1 24.34 km/h00:20:4212:05:43 detail
23.4032TEICHERT Ruda1985CZE BTT Libochovice 4TMOP - 24 hod. 4 tým muži OPEN2 24.22 km/h00:20:4812:53:58 detail
24.4210GAJDOŠ Lukáš1992SVK Spektrumsz/CK Epic Dohňany 4TMOP - 24 hod. 4 tým muži OPEN2 24.02 km/h00:20:5913:56:22 detail
25.2101NOVÁK Rudolf1981CZE D&R 2TM12OP - 12 hod. 2 tým muži OPEN1 23.94 km/h00:21:0311:46:28 detail
26.39KŘEPELKA Marek1974CZE KŘEPELKA Marek SM40-49 - 24 hod. jednotlivci muži 40 - 49 let1 23.88 km/h00:21:0611:25:29 detail
27.4133HOLÍK Jaroslav1993CZE Veselý šlapky 4TMOP - 24 hod. 4 tým muži OPEN3 23.75 km/h00:21:1316:58:35 detail
28.4190DVOŘÁK Martin1969CZE Uniqa MTB Jihlava 4TMV - 24 hod. 4 tým muži 40 let +1 23.70 km/h00:21:1612:05:45 detail
29.4033PTÁČEK Michal1985CZE BTT Libochovice 4TMOP - 24 hod. 4 tým muži OPEN1 23.54 km/h00:21:2412:09:17 detail
30.4030ŘÍHA Zbyněk1986CZE BTT Libochovice 4TMOP - 24 hod. 4 tým muži OPEN1 23.44 km/h00:21:3011:47:26 detail
31.4022HERNA Lukáš1988CZE 4joy 4TMIOP - 24. hod. 4 tým mix OPEN3 23.40 km/h00:21:3215:08:13 detail
32.4093ULICNY Vladimir1974CZE SAP Concur 4TMOP - 24 hod. 4 tým muži OPEN5 23.35 km/h00:21:3419:27:37 detail
33.2030MATOUŠ Martin1970CZE UNIQA MTB JIHLAVA 2TMI12OP - 12 hod. 2 tým mix OPEN1 23.26 km/h00:21:4011:26:00 detail
34.1101MACHÁČEK Jiří1975CZE Highland sport Team 2TMV - 24 hod. 2 tým muži 40 let +1 23.25 km/h00:21:4011:49:20 detail
35.4192MATULA Martin1977CZE Uniqa MTB Jihlava 4TMV - 24 hod. 4 tým muži 40 let +1 23.19 km/h00:21:4312:50:45 detail
36.4070LACINA Jan1989CZE HR Racing Team České Budějovice 4TMOP - 24 hod. 4 tým muži OPEN2 23.17 km/h00:21:4514:11:38 detail
37.43MUSIL Radek1979CZE MUSIL Radek SM40-49 - 24 hod. jednotlivci muži 40 - 49 let2 23.13 km/h00:21:4711:49:10 detail
38.4191ŠTĚPÁNEK Libor1968CZE Uniqa MTB Jihlava 4TMV - 24 hod. 4 tým muži 40 let +3 23.05 km/h00:21:5216:31:18 detail
39.2080PIVOŇKA Vojtěch1981CZE Penguin Team 2TM12OP - 12 hod. 2 tým muži OPEN1 22.94 km/h00:21:5812:07:22 detail
40.4131MICHAL Hecht1987CZE Veselý šlapky 4TMOP - 24 hod. 4 tým muži OPEN5 22.85 km/h00:22:0317:43:11 detail
41.8016FIBICH Václav1983CZE MMJ - nevzdáme to. 8TOP - 24 hod. 8 tým bez rozdílu, bez omezení věku2 22.80 km/h00:22:0615:53:32 detail
42.4080SÝKORA Martin1970CZE TUKAN KV 4TMV - 24 hod. 4 tým muži 40 let +1 22.70 km/h00:22:1212:36:49 detail
43.4083FÁBERA Petr1970CZE TUKAN KV 4TMV - 24 hod. 4 tým muži 40 let +2 22.66 km/h00:22:1413:20:02 detail
44.4073OSENSKÝ Robert1980CZE HR Racing Team České Budějovice 4TMOP - 24 hod. 4 tým muži OPEN2 22.64 km/h00:22:1514:34:20 detail
45.4130ŠNAJDR Jaroslav1974CZE Veselý šlapky 4TMOP - 24 hod. 4 tým muži OPEN3 22.62 km/h00:22:1616:12:52 detail
46.4170ŠMOLÍK Jan1992CZE Volšový nohy 4TMIOP - 24. hod. 4 tým mix OPEN2 22.62 km/h00:22:1613:45:52 detail
47.1001TUNA Jaroslav1977CZE Cyklo Kněžice 2TMV - 24 hod. 2 tým muži 40 let +3 22.59 km/h00:22:1813:45:58 detail
48.2040BARTIZALOVÁ Denisa1996CZE BarBro TEAM 2TMI12OP - 12 hod. 2 tým mix OPEN1 22.51 km/h00:22:2312:09:29 detail
49.4202VÁCHA Libor1974CZE Ona day Mtb 4TMV - 24 hod. 4 tým muži 40 let +3 22.50 km/h00:22:2315:53:32 detail
50.4031ZINGA Kamil1972CZE BTT Libochovice 4TMOP - 24 hod. 4 tým muži OPEN2 22.50 km/h00:22:2414:01:06 detail
12345

 

 
Created by SportSoft